Time;durP1;ratioP1;P1;durP2;ratioP2;P2;SDS_P1;SDS_P2;PMS_P1;PMS_P2;Temp;Humidity;BMP_temperature;BMP_pressure;BME280_temperature;BME280_humidity;BME280_pressure;Samples;Min_cycle;Max_cycle;Signal;HPM_P1;HPM_P2
2022/08/19 00:01:55;;;;;;;16.10;8.60;;;14.20;99.90;;;;;;5026112;28;20017;-78
2022/08/19 00:04:24;;;;;;;11.52;8.68;;;14.20;99.90;;;;;;5037365;28;20061;-78
2022/08/19 00:06:51;;;;;;;14.77;8.73;;;14.20;99.90;;;;;;5035475;28;20025;-78
2022/08/19 00:09:18;;;;;;;12.43;8.07;;;14.10;99.90;;;;;;5037992;28;20029;-78
2022/08/19 00:11:45;;;;;;;13.93;8.43;;;14.10;99.90;;;;;;5038735;28;20048;-78
2022/08/19 00:14:15;;;;;;;15.02;8.80;;;14.00;99.90;;;;;;5036443;28;20018;-78
2022/08/19 00:16:43;;;;;;;12.63;8.32;;;14.00;99.90;;;;;;5031741;28;20033;-77
2022/08/19 00:19:10;;;;;;;13.30;8.65;;;13.90;99.90;;;;;;5017813;28;20034;-78
2022/08/19 00:21:39;;;;;;;11.55;7.45;;;13.80;99.90;;;;;;5036572;28;20024;-78
2022/08/19 00:24:06;;;;;;;11.85;7.88;;;13.60;99.90;;;;;;5035926;28;20064;-78
2022/08/19 00:26:32;;;;;;;11.32;7.43;;;13.70;99.90;;;;;;5022253;28;20026;-78
2022/08/19 00:28:57;;;;;;;17.25;8.32;;;13.60;99.90;;;;;;5016302;28;20024;-78
2022/08/19 00:31:24;;;;;;;16.02;8.75;;;13.70;99.90;;;;;;5017372;28;20042;-78
2022/08/19 00:33:50;;;;;;;15.43;8.02;;;13.60;99.90;;;;;;5035049;28;20037;-78
2022/08/19 00:36:16;;;;;;;15.73;9.10;;;13.80;99.90;;;;;;5034976;28;20053;-78
2022/08/19 00:38:42;;;;;;;14.57;8.98;;;13.70;99.90;;;;;;5033869;28;20037;-79
2022/08/19 00:41:10;;;;;;;14.68;8.52;;;13.60;99.90;;;;;;5033326;28;20028;-78
2022/08/19 00:43:35;;;;;;;11.52;8.02;;;13.60;99.90;;;;;;5033893;28;20505;-78
2022/08/19 00:46:04;;;;;;;14.77;8.35;;;13.50;99.90;;;;;;5035037;28;20045;-78
2022/08/19 00:48:31;;;;;;;13.07;7.47;;;13.40;99.90;;;;;;5035734;28;20026;-78
2022/08/19 00:50:58;;;;;;;12.57;8.10;;;13.40;99.90;;;;;;5035161;28;20021;-79
2022/08/19 00:53:27;;;;;;;15.23;8.88;;;13.40;99.90;;;;;;5036372;28;20029;-78
2022/08/19 00:55:56;;;;;;;16.40;9.07;;;13.40;99.90;;;;;;5036299;28;20037;-78
2022/08/19 00:58:27;;;;;;;15.30;8.77;;;13.60;99.90;;;;;;5035103;28;20030;-78
2022/08/19 01:00:53;;;;;;;15.32;8.57;;;13.60;99.90;;;;;;5035645;28;20083;-78
2022/08/19 01:03:23;;;;;;;16.05;9.40;;;13.50;99.90;;;;;;5036807;28;20021;-78
2022/08/19 01:05:51;;;;;;;15.90;9.43;;;13.70;99.90;;;;;;5034859;28;20040;-78
2022/08/19 01:08:18;;;;;;;15.02;9.13;;;13.50;99.90;;;;;;5015356;28;20069;-78
2022/08/19 01:10:48;;;;;;;17.83;9.82;;;13.50;99.90;;;;;;5014634;28;20417;-78
2022/08/19 01:13:22;;;;;;;15.32;9.15;;;13.60;99.90;;;;;;5017042;28;20041;-78
2022/08/19 01:15:56;;;;;;;13.90;9.35;;;13.50;99.90;;;;;;5034587;28;20026;-78
2022/08/19 01:18:23;;;;;;;15.30;9.05;;;13.50;99.90;;;;;;5033138;28;20488;-79
2022/08/19 01:20:50;;;;;;;14.98;8.55;;;13.30;99.90;;;;;;5026298;28;20032;-78
2022/08/19 01:23:16;;;;;;;15.65;8.38;;;13.20;99.90;;;;;;5032675;28;20109;-78
2022/08/19 01:25:42;;;;;;;11.77;8.52;;;13.10;99.90;;;;;;5034381;28;20076;-78
2022/08/19 01:28:08;;;;;;;14.63;8.77;;;13.00;99.90;;;;;;5033451;28;20048;-78
2022/08/19 01:30:35;;;;;;;13.93;8.15;;;13.00;99.90;;;;;;5033641;28;20021;-78
2022/08/19 01:33:04;;;;;;;13.20;8.48;;;13.00;99.90;;;;;;5033192;28;20053;-78
2022/08/19 01:35:31;;;;;;;13.02;8.43;;;12.90;99.90;;;;;;5033556;28;20053;-78
2022/08/19 01:38:07;;;;;;;11.73;7.63;;;12.90;99.90;;;;;;5035991;28;20036;-78
2022/08/19 01:40:34;;;;;;;12.45;8.13;;;12.80;99.90;;;;;;5036639;28;20128;-78
2022/08/19 01:43:01;;;;;;;15.82;8.55;;;12.80;99.90;;;;;;5035874;28;20052;-78
2022/08/19 01:45:28;;;;;;;12.90;8.40;;;12.80;99.90;;;;;;5035763;28;20462;-78
2022/08/19 01:47:55;;;;;;;13.57;8.77;;;12.80;99.90;;;;;;5035401;28;20032;-78
2022/08/19 01:50:21;;;;;;;13.48;8.45;;;12.80;99.90;;;;;;5035672;28;20032;-77
2022/08/19 01:52:47;;;;;;;12.95;8.13;;;12.80;99.90;;;;;;5035910;28;20021;-78
2022/08/19 01:55:17;;;;;;;13.82;8.32;;;12.80;99.90;;;;;;5034998;28;20055;-78
2022/08/19 01:57:48;;;;;;;14.20;9.38;;;12.80;99.90;;;;;;5035290;28;20021;-78
2022/08/19 02:00:17;;;;;;;15.20;8.23;;;12.80;99.90;;;;;;5035079;28;20034;-78
2022/08/19 02:02:43;;;;;;;13.48;8.65;;;12.70;99.90;;;;;;5035623;28;20100;-78
2022/08/19 02:05:10;;;;;;;12.55;8.07;;;12.60;99.90;;;;;;5035823;28;20466;-78
2022/08/19 02:07:36;;;;;;;13.98;8.55;;;12.70;99.90;;;;;;5035160;28;20489;-78
2022/08/19 02:10:10;;;;;;;16.05;8.80;;;12.70;99.90;;;;;;5035195;28;20033;-78
2022/08/19 02:12:35;;;;;;;16.00;8.45;;;12.70;99.90;;;;;;5035118;28;20033;-78
2022/08/19 02:15:02;;;;;;;13.05;8.30;;;12.70;99.90;;;;;;5034616;28;20028;-78
2022/08/19 02:17:29;;;;;;;13.88;8.38;;;12.80;99.90;;;;;;5035169;28;20025;-77
2022/08/19 02:19:56;;;;;;;19.98;8.63;;;12.70;99.90;;;;;;5035017;28;20037;-78
2022/08/19 02:22:22;;;;;;;13.57;8.20;;;12.70;99.90;;;;;;5034974;28;20025;-78
2022/08/19 02:24:48;;;;;;;13.52;8.32;;;12.80;99.90;;;;;;5026694;28;20040;-77
2022/08/19 02:27:14;;;;;;;13.05;8.25;;;12.80;99.90;;;;;;5015737;28;20030;-77
2022/08/19 02:29:40;;;;;;;12.80;8.30;;;12.80;99.90;;;;;;5015367;28;20562;-78
2022/08/19 02:32:07;;;;;;;16.60;8.48;;;12.90;99.90;;;;;;5015948;28;20416;-78
2022/08/19 02:34:33;;;;;;;14.98;8.40;;;12.90;99.90;;;;;;5014590;28;20635;-78
2022/08/19 02:36:59;;;;;;;11.52;7.47;;;12.70;99.90;;;;;;5015455;28;20471;-78
2022/08/19 02:39:24;;;;;;;13.90;8.82;;;12.90;99.90;;;;;;5034145;28;20033;-78
2022/08/19 02:41:51;;;;;;;17.80;8.25;;;12.60;99.90;;;;;;5034177;28;20030;-77
2022/08/19 02:44:17;;;;;;;15.40;8.45;;;12.60;99.90;;;;;;5034578;28;20532;-77
2022/08/19 02:46:46;;;;;;;16.00;8.63;;;12.60;99.90;;;;;;5035149;28;20029;-77
2022/08/19 02:49:12;;;;;;;14.27;8.23;;;12.60;99.90;;;;;;5036752;28;20061;-78
2022/08/19 02:51:41;;;;;;;15.80;8.98;;;12.70;99.90;;;;;;5038070;28;20036;-78
2022/08/19 02:54:08;;;;;;;14.02;8.15;;;12.80;99.90;;;;;;5035550;28;20037;-78
2022/08/19 02:56:39;;;;;;;16.70;8.52;;;12.70;99.90;;;;;;5035236;28;20032;-78
2022/08/19 02:59:08;;;;;;;17.00;8.70;;;12.80;99.90;;;;;;5034586;28;20033;-78
2022/08/19 03:01:34;;;;;;;14.27;8.45;;;12.80;99.90;;;;;;5035481;28;20469;-78
2022/08/19 03:04:03;;;;;;;18.48;9.23;;;12.80;99.90;;;;;;5035405;28;20116;-78
2022/08/19 03:06:29;;;;;;;16.08;8.68;;;12.90;99.90;;;;;;5034494;28;20029;-78
2022/08/19 03:08:55;;;;;;;17.05;8.90;;;12.90;99.90;;;;;;5033911;28;20049;-79
2022/08/19 03:11:30;;;;;;;15.10;8.20;;;12.80;99.90;;;;;;5033866;28;20079;-78
2022/08/19 03:13:58;;;;;;;16.77;8.73;;;12.90;99.90;;;;;;5033967;28;20040;-78
2022/08/19 03:16:26;;;;;;;14.80;8.77;;;12.90;99.90;;;;;;5016400;28;20558;-78
2022/08/19 03:18:52;;;;;;;19.48;8.45;;;12.90;99.90;;;;;;5033790;28;20030;-78
2022/08/19 03:21:25;;;;;;;17.35;9.07;;;13.00;99.90;;;;;;5033550;28;20384;-78
2022/08/19 03:23:54;;;;;;;14.13;7.72;;;13.00;99.90;;;;;;5034040;28;20021;-78
2022/08/19 03:26:20;;;;;;;14.70;8.10;;;13.00;99.90;;;;;;5034818;28;20021;-78
2022/08/19 03:28:49;;;;;;;16.45;8.90;;;13.00;99.90;;;;;;5034092;28;20029;-77
2022/08/19 03:31:17;;;;;;;16.67;8.82;;;13.00;99.90;;;;;;5017903;28;20026;-78
2022/08/19 03:33:44;;;;;;;18.73;8.80;;;13.00;99.90;;;;;;5013639;28;20057;-78
2022/08/19 03:36:15;;;;;;;16.35;8.60;;;13.00;99.90;;;;;;5013337;28;20054;-78
2022/08/19 03:38:44;;;;;;;14.40;8.10;;;13.00;99.90;;;;;;5023901;28;20022;-78
2022/08/19 03:41:15;;;;;;;14.43;8.55;;;13.00;99.90;;;;;;5032858;28;20037;-78
2022/08/19 03:43:41;;;;;;;;;;;12.90;99.90;;;;;;5033732;28;20029;-78
2022/08/19 03:46:14;;;;;;;13.30;8.48;;;12.90;99.90;;;;;;5033134;28;19905;-78
2022/08/19 03:48:41;;;;;;;17.88;8.88;;;12.90;99.90;;;;;;5033277;28;20021;-78
2022/08/19 03:51:14;;;;;;;15.98;8.38;;;13.00;99.90;;;;;;5033386;28;20017;-78
2022/08/19 03:53:40;;;;;;;15.07;8.13;;;13.00;99.90;;;;;;5033176;28;20033;-77
2022/08/19 03:56:09;;;;;;;17.55;9.35;;;12.90;99.90;;;;;;5032914;28;20021;-78
2022/08/19 03:58:35;;;;;;;12.82;7.75;;;13.00;99.90;;;;;;5031998;28;20096;-77
2022/08/19 04:01:00;;;;;;;16.17;8.85;;;12.90;99.90;;;;;;5032542;28;20777;-78
2022/08/19 04:03:29;;;;;;;17.67;9.20;;;12.80;99.90;;;;;;5032686;28;20104;-78
2022/08/19 04:05:54;;;;;;;15.93;8.85;;;12.90;99.90;;;;;;5032411;28;20041;-78
2022/08/19 04:08:20;;;;;;;19.92;10.15;;;12.90;99.90;;;;;;5032117;28;20030;-78
2022/08/19 04:10:47;;;;;;;20.02;10.10;;;12.90;99.90;;;;;;5032573;28;20517;-77
2022/08/19 04:13:17;;;;;;;21.40;9.30;;;12.90;99.90;;;;;;5032214;28;20020;-78
2022/08/19 04:15:46;;;;;;;16.98;9.40;;;13.00;99.90;;;;;;5032458;28;20076;-78
2022/08/19 04:18:12;;;;;;;19.17;10.40;;;13.00;99.90;;;;;;5032772;28;20488;-78
2022/08/19 04:20:43;;;;;;;19.25;10.35;;;13.00;99.90;;;;;;5032325;28;20394;-78
2022/08/19 04:23:09;;;;;;;19.13;10.73;;;13.10;99.90;;;;;;5032793;28;20022;-78
2022/08/19 04:25:40;;;;;;;26.02;11.15;;;13.00;99.90;;;;;;5033150;28;20029;-78
2022/08/19 04:28:07;;;;;;;22.45;11.30;;;13.20;99.90;;;;;;5032557;28;20033;-78
2022/08/19 04:30:45;;;;;;;22.05;11.80;;;13.30;99.90;;;;;;5032247;28;20075;-78
2022/08/19 04:33:12;;;;;;;26.75;11.98;;;13.50;99.90;;;;;;5032794;28;20037;-77
2022/08/19 04:35:40;;;;;;;27.40;11.45;;;13.50;99.90;;;;;;5032297;28;20052;-78
2022/08/19 04:38:06;;;;;;;25.13;11.73;;;13.60;99.90;;;;;;5031947;28;20029;-78
2022/08/19 04:43:16;;;;;;;23.80;11.88;;;13.70;99.90;;;;;;5032580;28;20056;-78
2022/08/19 04:45:44;;;;;;;21.92;11.00;;;13.60;99.90;;;;;;5032090;28;20021;-77
2022/08/19 04:48:10;;;;;;;25.20;11.65;;;13.70;99.90;;;;;;5032524;28;20059;-78
2022/08/19 04:50:36;;;;;;;27.38;12.85;;;13.80;99.90;;;;;;5029904;28;20025;-78
2022/08/19 04:53:02;;;;;;;24.75;11.40;;;13.90;99.90;;;;;;5032024;28;20079;-78
2022/08/19 04:55:28;;;;;;;24.65;11.73;;;13.90;99.90;;;;;;5032223;28;20010;-77
2022/08/19 04:57:54;;;;;;;25.45;12.82;;;13.90;99.90;;;;;;5013721;28;20021;-78
2022/08/19 05:00:20;;;;;;;27.27;12.48;;;14.10;99.90;;;;;;5012008;28;20058;-77
2022/08/19 05:02:45;;;;;;;33.20;12.98;;;14.20;99.90;;;;;;5026157;28;20073;-77
2022/08/19 05:05:12;;;;;;;28.38;13.02;;;14.50;99.90;;;;;;5031805;28;20364;-79
2022/08/19 05:07:37;;;;;;;26.13;12.77;;;14.50;99.90;;;;;;5031476;28;20029;-78
2022/08/19 05:10:05;;;;;;;26.98;12.57;;;14.50;99.90;;;;;;5029269;28;20412;-79
2022/08/19 05:12:31;;;;;;;19.70;9.23;;;14.70;99.90;;;;;;5034638;28;20060;-78
2022/08/19 05:14:58;;;;;;;18.05;10.43;;;14.90;99.90;;;;;;5035995;28;20029;-78
2022/08/19 05:17:24;;;;;;;20.58;11.25;;;15.10;99.90;;;;;;5036336;28;20453;-79
2022/08/19 05:22:37;;;;;;;20.73;11.38;;;15.40;99.90;;;;;;5036772;28;20091;-78
2022/08/19 05:25:08;;;;;;;18.90;9.68;;;15.60;99.90;;;;;;5037702;28;20022;-78
2022/08/19 05:27:33;;;;;;;16.67;10.68;;;15.80;99.90;;;;;;5033072;28;20034;-79
2022/08/19 05:30:01;;;;;;;18.73;10.57;;;15.90;99.90;;;;;;5038783;28;20104;-79
2022/08/19 05:32:27;;;;;;;20.92;10.95;;;16.10;99.90;;;;;;5038355;28;20037;-79
2022/08/19 05:34:53;;;;;;;22.10;11.52;;;16.30;99.90;;;;;;5036837;28;20046;-79
2022/08/19 05:37:19;;;;;;;19.98;10.50;;;17.70;99.90;;;;;;5036975;28;20037;-79
2022/08/19 05:39:44;;;;;;;18.08;10.93;;;20.00;1.00;;;;;;5036661;28;20026;-79
2022/08/19 05:42:12;;;;;;;14.88;9.95;;;21.60;99.90;;;;;;5037445;28;20036;-80
2022/08/19 05:44:43;;;;;;;13.10;9.57;;;22.90;99.90;;;;;;5037836;28;20021;-80
2022/08/19 05:47:09;;;;;;;15.02;9.60;;;23.30;99.90;;;;;;5040441;28;20033;-79
2022/08/19 05:49:36;;;;;;;12.90;9.23;;;24.40;99.90;;;;;;5039685;28;20018;-79
2022/08/19 05:52:05;;;;;;;12.75;9.25;;;25.30;99.90;;;;;;5040639;28;20018;-79
2022/08/19 05:54:31;;;;;;;11.98;8.75;;;25.90;99.90;;;;;;5041680;28;20022;-80
2022/08/19 05:56:57;;;;;;;12.65;8.55;;;26.20;99.90;;;;;;5041560;28;20029;-79
2022/08/19 05:59:23;;;;;;;14.45;9.07;;;26.50;99.90;;;;;;5042721;28;20085;-78
2022/08/19 06:01:54;;;;;;;16.38;10.32;;;26.90;99.90;;;;;;5043219;28;20018;-78
2022/08/19 06:04:20;;;;;;;13.02;9.70;;;26.50;99.90;;;;;;5049188;28;20029;-79
2022/08/19 06:06:48;;;;;;;12.02;8.88;;;24.70;99.90;;;;;;5043235;28;20048;-79
2022/08/19 06:09:14;;;;;;;11.55;8.73;;;23.50;99.90;;;;;;5045210;28;20029;-80
2022/08/19 06:11:43;;;;;;;11.73;9.15;;;22.90;99.90;;;;;;5032704;28;20029;-79
2022/08/19 06:14:12;;;;;;;13.63;9.10;;;22.30;99.90;;;;;;5031747;28;20353;-78
2022/08/19 06:16:40;;;;;;;14.07;9.82;;;22.20;99.90;;;;;;5038523;28;20030;-79
2022/08/19 06:19:08;;;;;;;13.80;10.18;;;22.20;99.90;;;;;;5041139;28;20642;-78
2022/08/19 06:21:37;;;;;;;13.60;10.57;;;21.90;99.90;;;;;;5045930;28;20029;-78
2022/08/19 06:24:04;;;;;;;13.07;10.30;;;21.80;99.90;;;;;;5044584;28;20086;-79
2022/08/19 06:26:30;;;;;;;12.90;8.77;;;21.70;99.90;;;;;;5043947;28;20090;-79
2022/08/19 06:28:56;;;;;;;14.88;11.52;;;21.70;99.90;;;;;;5048180;28;20034;-78
2022/08/19 06:31:26;;;;;;;16.15;11.57;;;21.30;99.90;;;;;;5038529;28;20022;-79
2022/08/19 06:33:51;;;;;;;14.20;10.45;;;21.30;99.90;;;;;;5047416;28;20026;-79
2022/08/19 06:36:27;;;;;;;13.10;10.10;;;21.50;99.90;;;;;;5042298;28;20077;-79
2022/08/19 06:38:54;;;;;;;12.68;9.63;;;23.50;99.90;;;;;;5044880;28;20056;-79
2022/08/19 06:41:20;;;;;;;13.90;9.90;;;27.00;99.90;;;;;;5039338;28;20045;-78
2022/08/19 06:43:46;;;;;;;15.02;11.02;;;29.30;99.90;;;;;;5047109;28;20077;-78
2022/08/19 06:46:14;;;;;;;12.50;10.35;;;30.50;99.90;;;;;;5052398;28;20508;-79
2022/08/19 06:48:41;;;;;;;11.57;10.30;;;32.00;99.90;;;;;;5047131;28;20092;-79
2022/08/19 06:51:06;;;;;;;11.30;9.73;;;32.10;99.90;;;;;;5047947;28;20038;-78
2022/08/19 06:53:33;;;;;;;12.45;9.57;;;33.50;99.90;;;;;;5047375;28;20022;-78
2022/08/19 06:56:02;;;;;;;17.05;11.98;;;33.90;99.90;;;;;;5046947;28;20048;-78
2022/08/19 06:58:31;;;;;;;15.13;12.65;;;34.20;99.90;;;;;;5047973;28;20040;-79
2022/08/19 07:01:02;;;;;;;;;;;32.30;99.90;;;;;;5056915;28;20025;-79
2022/08/19 07:03:31;;;;;;;15.13;12.77;;;30.60;99.90;;;;;;5057313;28;19901;-79
2022/08/19 07:05:57;;;;;;;16.50;13.13;;;29.90;99.90;;;;;;5046102;28;20036;-79
2022/08/19 07:08:24;;;;;;;14.95;13.35;;;29.70;99.90;;;;;;5057064;28;20056;-79
2022/08/19 07:10:49;;;;;;;15.98;13.63;;;29.40;99.90;;;;;;5057175;28;20040;-79
2022/08/19 07:13:15;;;;;;;15.75;14.05;;;31.50;99.90;;;;;;5056724;28;20010;-79
2022/08/19 07:15:41;;;;;;;15.23;13.63;;;34.50;99.90;;;;;;5056112;28;20029;-79
2022/08/19 07:18:06;;;;;;;17.42;15.32;;;35.60;99.90;;;;;;5056854;28;20037;-79
2022/08/19 07:20:32;;;;;;;15.80;13.90;;;36.30;99.90;;;;;;5056935;28;20056;-80
2022/08/19 07:22:58;;;;;;;18.42;16.45;;;36.30;99.90;;;;;;5056781;28;20029;-79
2022/08/19 07:25:23;;;;;;;19.70;16.02;;;36.90;99.90;;;;;;5056835;28;20021;-79
2022/08/19 07:27:50;;;;;;;21.90;17.48;;;38.20;99.90;;;;;;5043533;28;20014;-79
2022/08/19 07:30:16;;;;;;;19.45;16.60;;;37.40;99.90;;;;;;5056631;28;20017;-79
2022/08/19 07:32:42;;;;;;;20.35;18.10;;;37.50;99.90;;;;;;5056400;28;20044;-79
2022/08/19 07:35:09;;;;;;;22.55;19.42;;;36.70;99.90;;;;;;5055930;28;20050;-79
2022/08/19 07:37:36;;;;;;;23.52;19.73;;;38.60;99.90;;;;;;5056476;28;20053;-79
2022/08/19 07:40:04;;;;;;;24.58;20.35;;;39.50;99.90;;;;;;5056444;28;20018;-79
2022/08/19 07:42:30;;;;;;;27.27;22.08;;;40.40;99.90;;;;;;5056314;28;20032;-79
2022/08/19 07:44:55;;;;;;;28.70;23.13;;;41.20;99.90;;;;;;5055878;28;20022;-79
2022/08/19 07:47:21;;;;;;;25.83;22.77;;;42.30;99.90;;;;;;5055240;28;20073;-79
2022/08/19 07:49:47;;;;;;;29.35;24.00;;;42.60;99.90;;;;;;5050354;28;20022;-80
2022/08/19 07:52:12;;;;;;;27.98;22.75;;;42.60;99.90;;;;;;5044485;28;20288;-79
2022/08/19 07:54:38;;;;;;;27.10;22.98;;;42.50;99.90;;;;;;5053537;28;20093;-79
2022/08/19 07:57:06;;;;;;;24.38;19.88;;;43.30;99.90;;;;;;5049126;28;20033;-79
2022/08/19 07:59:31;;;;;;;23.33;20.40;;;43.80;99.90;;;;;;5052932;28;20085;-79
2022/08/19 08:02:00;;;;;;;24.10;20.88;;;44.00;99.80;;;;;;5055745;28;20080;-79
2022/08/19 08:09:54;;;;;;;23.15;20.58;;;43.00;97.30;;;;;;5052301;28;20044;-80
2022/08/19 08:12:31;;;;;;;22.88;19.20;;;41.60;95.80;;;;;;5056126;28;20065;-80
2022/08/19 08:15:01;;;;;;;20.60;18.05;;;41.40;95.30;;;;;;5056248;28;20057;-80
2022/08/19 08:17:28;;;;;;;21.60;18.25;;;42.50;95.20;;;;;;5055779;28;20045;-80
2022/08/19 08:19:55;;;;;;;18.77;15.10;;;43.20;94.20;;;;;;5055647;28;20021;-80
2022/08/19 08:25:11;;;;;;;18.48;16.05;;;36.60;95.60;;;;;;5055967;28;20084;-80
2022/08/19 08:27:39;;;;;;;21.10;16.92;;;34.60;99.20;;;;;;5053254;28;20030;-80
2022/08/19 08:30:09;;;;;;;19.05;16.33;;;34.70;99.90;;;;;;5055722;28;20049;-80
2022/08/19 08:32:39;;;;;;;20.23;16.17;;;35.10;99.90;;;;;;5055735;28;20022;-80
2022/08/19 08:35:07;;;;;;;16.45;12.65;;;37.10;99.90;;;;;;5055504;28;20064;-80
2022/08/19 08:37:33;;;;;;;16.17;12.20;;;35.10;99.90;;;;;;5055108;28;20041;-80
2022/08/19 08:40:01;;;;;;;14.85;12.07;;;33.40;99.90;;;;;;5055627;28;20038;-80
2022/08/19 08:42:36;;;;;;;17.63;13.00;;;32.30;99.90;;;;;;5054848;28;20089;-78
2022/08/19 08:45:14;;;;;;;14.88;12.05;;;33.60;99.90;;;;;;5057559;28;20028;-78
2022/08/19 08:47:46;;;;;;;15.52;11.82;;;35.10;99.90;;;;;;5060080;28;20032;-78
2022/08/19 08:50:35;;;;;;;18.55;13.57;;;35.00;99.90;;;;;;5059501;28;20014;-80
2022/08/19 08:53:05;;;;;;;17.00;11.85;;;37.70;99.90;;;;;;5059630;28;20105;-80
2022/08/19 08:55:31;;;;;;;16.40;12.82;;;35.70;99.90;;;;;;5051640;28;20085;-80
2022/08/19 08:58:09;;;;;;;18.10;13.02;;;35.20;99.90;;;;;;5059512;28;20085;-79
2022/08/19 09:00:40;;;;;;;17.58;12.80;;;33.80;99.90;;;;;;5053640;28;20021;-79
2022/08/19 09:03:19;;;;;;;15.88;12.50;;;33.40;99.90;;;;;;5059537;28;20017;-80
2022/08/19 09:06:11;;;;;;;15.65;13.93;;;38.10;99.90;;;;;;5053423;28;20030;-80
2022/08/19 09:09:03;;;;;;;19.77;13.82;;;37.30;99.90;;;;;;5051624;28;20017;-80
2022/08/19 09:11:44;;;;;;;14.60;12.07;;;36.20;99.90;;;;;;5058933;28;20029;-79
2022/08/19 09:14:35;;;;;;;15.20;11.43;;;37.80;99.90;;;;;;5059375;28;20029;-79
2022/08/19 09:17:03;;;;;;;14.52;11.43;;;35.70;99.90;;;;;;5054377;28;20090;-79
2022/08/19 09:19:29;;;;;;;14.10;10.95;;;35.10;99.90;;;;;;5059014;28;20032;-80
2022/08/19 09:21:54;;;;;;;13.77;9.93;;;33.80;99.90;;;;;;5059521;28;20028;-79
2022/08/19 09:24:20;;;;;;;12.80;9.65;;;36.50;99.90;;;;;;5058996;28;20014;-79
2022/08/19 09:26:46;;;;;;;17.08;12.10;;;39.30;99.90;;;;;;5059349;28;20017;-80
2022/08/19 09:29:12;;;;;;;13.77;10.68;;;40.10;99.90;;;;;;5058806;28;20010;-80
2022/08/19 09:31:38;;;;;;;14.32;11.05;;;40.90;99.90;;;;;;5058698;28;20077;-81
2022/08/19 09:34:04;;;;;;;14.05;9.98;;;42.50;99.90;;;;;;5058360;28;20040;-80
2022/08/19 09:36:33;;;;;;;15.82;10.38;;;42.70;98.40;;;;;;5058622;28;20041;-80
2022/08/19 09:39:00;;;;;;;16.50;10.73;;;41.40;97.60;;;;;;5056373;28;20030;-80
2022/08/19 09:41:26;;;;;;;16.30;10.68;;;42.60;95.90;;;;;;5056234;28;20018;-80
2022/08/19 09:43:55;;;;;;;15.98;11.43;;;41.90;93.70;;;;;;5053433;28;20045;-80
2022/08/19 09:46:21;;;;;;;17.98;11.88;;;38.80;93.60;;;;;;5051962;28;20022;-79
2022/08/19 09:48:48;;;;;;;14.13;11.50;;;38.90;97.00;;;;;;5052169;28;20026;-80
2022/08/19 09:51:16;;;;;;;17.92;11.75;;;38.70;97.40;;;;;;5050761;28;20017;-80
2022/08/19 09:53:47;;;;;;;13.35;10.40;;;37.80;95.70;;;;;;5056626;28;20052;-80
2022/08/19 09:56:13;;;;;;;11.93;10.35;;;37.10;97.10;;;;;;5054304;28;20025;-80
2022/08/19 09:58:39;;;;;;;14.20;10.02;;;36.60;98.80;;;;;;5057702;28;20029;-79
2022/08/19 10:01:06;;;;;;;11.15;8.77;;;39.90;98.70;;;;;;5054658;28;20092;-80
2022/08/19 10:03:34;;;;;;;12.88;9.50;;;39.70;95.00;;;;;;5050400;28;20034;-80
2022/08/19 10:06:03;;;;;;;13.93;10.07;;;40.80;95.20;;;;;;5051334;28;20033;-80
2022/08/19 10:08:32;;;;;;;11.00;8.60;;;42.50;93.10;;;;;;5054587;28;20026;-80
2022/08/19 10:10:59;;;;;;;15.15;10.23;;;42.50;91.90;;;;;;5052989;28;20261;-80
2022/08/19 10:13:28;;;;;;;12.23;9.68;;;41.10;91.20;;;;;;5058147;28;20030;-81
2022/08/19 10:15:56;;;;;;;11.65;8.77;;;38.60;90.70;;;;;;5057890;28;20042;-80
2022/08/19 10:18:24;;;;;;;11.02;9.20;;;36.10;92.60;;;;;;5056419;28;20025;-81
2022/08/19 10:20:52;;;;;;;11.50;8.82;;;35.60;93.40;;;;;;5052934;28;20017;-82
2022/08/19 10:23:19;;;;;;;14.68;10.45;;;36.70;94.70;;;;;;5052578;28;20029;-81
2022/08/19 10:25:45;;;;;;;11.10;9.00;;;36.50;96.30;;;;;;5049253;28;20014;-81
2022/08/19 10:28:14;;;;;;;12.63;9.18;;;36.30;95.60;;;;;;5049373;28;20069;-81
2022/08/19 10:30:40;;;;;;;12.60;9.02;;;35.80;94.80;;;;;;5048946;28;20052;-81
2022/08/19 10:33:06;;;;;;;12.05;9.75;;;36.40;95.80;;;;;;5050952;28;20075;-81
2022/08/19 10:35:32;;;;;;;12.13;9.88;;;35.60;95.90;;;;;;5053580;28;20037;-81
2022/08/19 10:38:01;;;;;;;15.48;10.55;;;36.50;96.70;;;;;;5052561;28;20037;-81
2022/08/19 10:40:28;;;;;;;13.18;9.57;;;37.90;95.70;;;;;;5048104;28;20056;-81
2022/08/19 10:42:55;;;;;;;15.32;10.98;;;39.00;94.90;;;;;;5057698;28;20017;-81
2022/08/19 10:45:23;;;;;;;14.05;10.20;;;36.50;94.80;;;;;;5055554;28;20018;-81
2022/08/19 10:47:48;;;;;;;11.18;9.60;;;35.30;95.10;;;;;;5056751;28;20093;-81
2022/08/19 10:53:04;;;;;;;13.68;9.90;;;36.60;97.20;;;;;;5051345;28;20081;-81
2022/08/19 10:58:16;;;;;;;10.27;7.65;;;35.90;95.50;;;;;;5056743;28;20117;-81
2022/08/19 11:00:43;;;;;;;13.75;9.30;;;35.20;96.80;;;;;;5056838;28;20040;-81
2022/08/19 11:03:09;;;;;;;10.82;8.30;;;33.80;97.80;;;;;;5057183;28;20013;-81
2022/08/19 11:05:37;;;;;;;11.45;9.07;;;33.50;98.00;;;;;;5056733;28;20040;-81
2022/08/19 11:08:03;;;;;;;10.52;9.32;;;32.40;99.00;;;;;;5048729;28;20013;-81
2022/08/19 11:10:28;;;;;;;13.40;10.00;;;31.70;99.90;;;;;;5051824;28;20032;-81
2022/08/19 11:12:54;;;;;;;12.38;8.80;;;30.80;99.90;;;;;;5057055;28;20203;-81
2022/08/19 11:15:21;;;;;;;10.93;7.82;;;31.10;99.90;;;;;;5056548;28;20021;-81
2022/08/19 11:17:46;;;;;;;10.93;8.48;;;31.90;99.90;;;;;;5056784;28;20033;-81
2022/08/19 11:20:13;;;;;;;11.40;8.77;;;32.50;99.90;;;;;;5056824;28;20041;-81
2022/08/19 11:22:40;;;;;;;11.55;8.32;;;32.00;99.90;;;;;;5056780;28;20034;-81
2022/08/19 11:25:07;;;;;;;14.20;9.77;;;32.10;99.90;;;;;;5056968;28;20021;-81
2022/08/19 11:27:33;;;;;;;14.63;9.32;;;32.00;99.90;;;;;;5056761;28;20018;-81
2022/08/19 11:30:00;;;;;;;10.15;8.52;;;32.60;99.90;;;;;;5055505;28;20013;-82
2022/08/19 11:32:26;;;;;;;15.10;11.13;;;32.70;99.90;;;;;;5056474;28;20034;-82
2022/08/19 11:34:51;;;;;;;11.68;8.60;;;32.70;99.90;;;;;;5056636;28;20121;-81
2022/08/19 11:37:17;;;;;;;10.38;8.23;;;33.00;99.90;;;;;;5056266;28;20052;-81
2022/08/19 11:39:42;;;;;;;11.25;8.07;;;33.40;99.90;;;;;;5056323;28;20028;-81
2022/08/19 11:44:52;;;;;;;10.85;8.20;;;33.20;99.90;;;;;;5050632;28;20028;-81
2022/08/19 11:47:19;;;;;;;9.93;7.50;;;33.00;99.90;;;;;;5056219;28;20021;-81
2022/08/19 11:49:46;;;;;;;9.32;7.18;;;32.60;99.90;;;;;;5056500;28;20049;-81
2022/08/19 11:52:11;;;;;;;8.07;6.15;;;32.30;99.90;;;;;;5056400;28;20081;-81
2022/08/19 11:54:37;;;;;;;9.68;6.65;;;31.90;99.90;;;;;;5056475;28;20060;-81
2022/08/19 11:57:04;;;;;;;10.07;6.72;;;31.70;99.90;;;;;;5056771;28;20009;-82
2022/08/19 11:59:30;;;;;;;7.45;5.93;;;32.10;99.90;;;;;;5056183;28;20032;-82
2022/08/19 12:01:55;;;;;;;9.93;6.60;;;32.50;99.90;;;;;;5056079;28;20269;-81
2022/08/19 12:04:22;;;;;;;8.40;6.07;;;32.60;99.90;;;;;;5055865;28;20017;-81
2022/08/19 12:06:47;;;;;;;7.20;6.30;;;32.20;99.90;;;;;;5055532;28;20045;-81
2022/08/19 12:09:15;;;;;;;10.85;7.40;;;32.30;99.90;;;;;;5055425;28;20029;-82
2022/08/19 12:11:40;;;;;;;8.15;6.88;;;32.70;99.90;;;;;;5055132;28;20041;-81
2022/08/19 12:14:10;;;;;;;8.68;7.10;;;32.40;99.90;;;;;;5054978;28;20017;-81
2022/08/19 12:16:35;;;;;;;10.57;7.57;;;32.40;99.90;;;;;;5055293;28;20025;-81
2022/08/19 12:19:03;;;;;;;11.35;7.53;;;32.20;99.90;;;;;;5055712;28;20048;-81
2022/08/19 12:21:31;;;;;;;8.55;7.43;;;31.40;99.90;;;;;;5055786;28;20021;-81
2022/08/19 12:23:59;;;;;;;9.20;7.47;;;31.50;99.90;;;;;;5034937;28;20093;-81
2022/08/19 12:26:26;;;;;;;13.90;7.82;;;32.00;99.90;;;;;;5051123;28;20199;-81
2022/08/19 12:28:52;;;;;;;9.60;8.50;;;31.80;99.90;;;;;;5038422;28;20021;-81
2022/08/19 12:31:19;;;;;;;11.00;9.00;;;31.50;99.90;;;;;;5055818;28;20079;-81
2022/08/19 12:33:45;;;;;;;11.52;9.27;;;31.80;99.90;;;;;;5055274;28;20034;-82
2022/08/19 12:36:13;;;;;;;13.07;8.60;;;31.90;99.90;;;;;;5052985;28;20061;-82
2022/08/19 12:38:39;;;;;;;11.55;8.68;;;32.50;99.90;;;;;;5055590;28;20025;-82
2022/08/19 12:41:06;;;;;;;10.00;7.63;;;32.00;99.90;;;;;;5055596;28;20021;-81
2022/08/19 12:43:36;;;;;;;9.43;7.80;;;32.50;99.90;;;;;;5055524;28;20077;-82
2022/08/19 12:46:05;;;;;;;10.63;8.10;;;32.20;99.90;;;;;;5055394;28;20322;-81
2022/08/19 12:48:32;;;;;;;11.77;8.27;;;32.50;99.90;;;;;;5049254;28;20243;-81
2022/08/19 12:50:58;;;;;;;10.32;8.35;;;32.50;99.90;;;;;;5053698;28;20080;-82
2022/08/19 12:53:24;;;;;;;12.15;8.52;;;31.80;99.90;;;;;;5055526;28;20013;-82
2022/08/19 12:55:57;;;;;;;9.82;7.82;;;31.90;99.90;;;;;;5055398;28;20024;-82
2022/08/19 12:58:23;;;;;;;11.02;7.47;;;32.00;99.90;;;;;;5048304;28;20255;-82